Time;durP1;ratioP1;P1;durP2;ratioP2;P2;SDS_P1;SDS_P2;PMS_P1;PMS_P2;Temp;Humidity;BMP_temperature;BMP_pressure;BME280_temperature;BME280_humidity;BME280_pressure;Samples;Min_cycle;Max_cycle;Signal;HPM_P1;HPM_P2
2022/10/01 00:01:58;;;;;;;;;5.33;4.33;;;;;14.29;74.09;100372.03;5064274;28;45177;-65
2022/10/01 00:04:25;;;;;;;;;3.67;3.67;;;;;14.24;74.13;100363.72;5049264;28;45455;-64
2022/10/01 00:06:50;;;;;;;;;4.67;3.67;;;;;14.26;74.49;100353.69;5042721;28;48763;-64
2022/10/01 00:09:15;;;;;;;;;4.33;4.33;;;;;14.22;74.26;100330.97;5040958;28;45409;-65
2022/10/01 00:11:41;;;;;;;;;3.00;3.00;;;;;14.07;74.99;100289.16;5036147;28;45618;-66
2022/10/01 00:14:07;;;;;;;;;5.33;5.00;;;;;14.15;74.39;100308.63;5036373;28;45435;-65
2022/10/01 00:16:33;;;;;;;;;4.33;4.33;;;;;14.22;74.90;100308.75;5036262;28;46230;-66
2022/10/01 00:18:59;;;;;;;;;4.33;4.33;;;;;14.22;74.56;100298.91;5042192;28;45381;-66
2022/10/01 00:21:30;;;;;;;;;4.33;3.00;;;;;14.26;74.67;100304.72;5026181;28;45292;-65
2022/10/01 00:24:01;;;;;;;;;3.33;3.33;;;;;14.24;74.85;100304.91;5035992;28;45311;-64
2022/10/01 00:26:30;;;;;;;;;2.67;2.67;;;;;14.20;75.21;100289.38;5035973;28;46496;-65
2022/10/01 00:28:59;;;;;;;;;2.67;2.67;;;;;14.02;75.32;100241.56;5035385;28;45367;-65
2022/10/01 00:31:25;;;;;;;;;3.00;2.67;;;;;14.16;75.37;100267.50;5037087;28;45604;-65
2022/10/01 00:33:52;;;;;;;;;3.00;3.00;;;;;14.16;76.26;100270.19;5022520;28;45511;-66
2022/10/01 00:36:18;;;;;;;;;4.00;3.00;;;;;14.13;76.12;100281.25;5035982;28;46343;-65
2022/10/01 00:38:45;;;;;;;;;7.33;5.67;;;;;14.09;75.89;100263.91;5036645;28;45834;-65
2022/10/01 00:41:10;;;;;;;;;7.67;4.00;;;;;14.13;76.42;100283.91;5039802;28;45473;-65
2022/10/01 00:43:41;;;;;;;;;4.00;3.33;;;;;14.12;76.58;100281.41;5040104;28;45276;-65
2022/10/01 00:46:16;;;;;;;;;5.00;4.00;;;;;14.14;76.39;100285.56;5039179;28;46432;-65
2022/10/01 00:48:52;;;;;;;;;3.00;3.00;;;;;14.16;76.99;100299.59;5039678;28;45578;-66
2022/10/01 00:51:19;;;;;;;;;2.33;2.00;;;;;14.20;76.85;100290.19;5034626;28;45219;-64
2022/10/01 00:53:45;;;;;;;;;3.00;2.67;;;;;14.17;76.85;100289.72;5038936;28;45229;-66
2022/10/01 00:56:11;;;;;;;;;1.33;1.33;;;;;14.09;76.93;100277.25;5039121;28;45700;-64
2022/10/01 00:58:38;;;;;;;;;2.00;1.67;;;;;14.10;77.16;100288.78;5039678;28;45354;-65
2022/10/01 01:01:04;;;;;;;;;3.00;1.67;;;;;14.16;77.31;100291.56;5050185;28;45365;-65
2022/10/01 01:03:29;;;;;;;;;3.00;3.00;;;;;14.13;77.22;100294.59;5048017;28;45547;-65
2022/10/01 01:05:55;;;;;;;;;3.33;2.00;;;;;14.17;77.31;100295.06;5063101;28;46105;-66
2022/10/01 01:08:20;;;;;;;;;3.00;3.00;;;;;14.22;78.25;100288.22;5072748;28;45483;-64
2022/10/01 01:10:51;;;;;;;;;2.33;1.33;;;;;14.15;78.44;100276.53;5049311;28;45315;-65
2022/10/01 01:13:52;;;;;;;;;1.00;1.00;;;;;14.14;78.60;100287.41;5066240;28;45337;-64
2022/10/01 01:16:23;;;;;;;;;1.67;1.67;;;;;14.19;78.73;100287.69;5016775;28;47468;-66
2022/10/01 01:18:57;;;;;;;;;3.67;3.67;;;;;14.17;78.38;100295.91;5072409;28;45427;-65
2022/10/01 01:21:35;;;;;;;;;3.00;3.00;;;;;14.09;77.98;100255.88;5074375;28;45691;-65
2022/10/01 01:24:29;;;;;;;;;0.67;0.67;;;;;14.19;78.43;100283.19;5056450;28;45468;-64
2022/10/01 01:27:17;;;;;;;;;2.67;1.00;;;;;14.23;78.65;100281.00;5053662;28;48771;-66
2022/10/01 01:30:14;;;;;;;;;3.00;2.33;;;;;14.26;78.61;100291.34;5073333;28;45591;-64
2022/10/01 01:32:51;;;;;;;;;5.00;3.67;;;;;14.37;78.73;100277.53;5066672;28;45410;-66
2022/10/01 01:35:32;;;;;;;;;2.00;2.00;;;;;14.23;78.29;100252.44;5076114;28;45315;-65
2022/10/01 01:38:02;;;;;;;;;2.00;2.00;;;;;14.25;78.64;100255.75;5067084;28;45188;-65
2022/10/01 01:40:33;;;;;;;;;1.67;1.67;;;;;14.35;78.85;100254.66;5067094;28;45353;-65
2022/10/01 01:43:04;;;;;;;;;3.67;2.67;;;;;13.83;78.58;100177.91;5061443;28;45391;-65
2022/10/01 01:45:34;;;;;;;;;1.33;1.33;;;;;13.31;78.78;100080.63;5060311;28;45472;-65
2022/10/01 01:48:02;;;;;;;;;2.67;1.33;;;;;14.25;79.08;100246.91;5058672;28;46828;-65
2022/10/01 01:50:33;;;;;;;;;1.67;1.67;;;;;14.37;79.09;100252.63;5074827;28;45182;-65
2022/10/01 01:52:59;;;;;;;;;1.00;1.00;;;;;14.39;79.00;100251.44;5065202;28;45720;-65
2022/10/01 01:55:28;;;;;;;;;1.00;1.00;;;;;14.25;78.97;100239.72;5069041;28;45436;-65
2022/10/01 01:57:56;;;;;;;;;2.67;2.67;;;;;14.36;79.34;100235.75;5073798;28;45923;-65
2022/10/01 02:00:21;;;;;;;;;0.67;0.67;;;;;14.38;79.34;100238.25;5067262;28;45459;-72
2022/10/01 02:02:50;;;;;;;;;3.33;1.67;;;;;14.38;79.42;100232.91;5060357;28;45451;-65
2022/10/01 02:05:22;;;;;;;;;1.67;0.67;;;;;14.46;79.23;100252.44;5038298;28;45486;-65
2022/10/01 02:08:06;;;;;;;;;0.67;0.67;;;;;14.50;79.21;100237.69;5032391;28;46436;-66
2022/10/01 02:10:40;;;;;;;;;0.67;0.67;;;;;14.45;79.56;100234.72;5050416;28;45557;-65
2022/10/01 02:13:25;;;;;;;;;0.67;0.67;;;;;14.50;79.07;100250.22;5037843;28;45237;-65
2022/10/01 02:16:00;;;;;;;;;0.67;0.67;;;;;14.51;79.14;100234.00;5023303;28;45222;-66
2022/10/01 02:18:33;;;;;;;;;0.33;0.33;;;;;14.48;78.93;100236.19;5037699;28;45270;-67
2022/10/01 02:21:23;;;;;;;;;0.67;0.67;;;;;14.57;78.73;100238.59;5037901;28;45350;-65
2022/10/01 02:23:58;;;;;;;;;0.67;0.67;;;;;14.52;78.98;100232.97;5037685;28;45234;-65
2022/10/01 02:26:26;;;;;;;;;0.67;0.67;;;;;14.59;78.91;100227.72;5039227;28;45336;-65
2022/10/01 02:28:54;;;;;;;;;1.33;1.33;;;;;14.62;78.45;100224.69;5037282;28;45837;-65
2022/10/01 02:31:21;;;;;;;;;0.67;0.67;;;;;14.61;78.68;100226.50;5037806;28;45491;-65
2022/10/01 02:33:50;;;;;;;;;0.33;0.33;;;;;14.31;78.90;100163.28;5038019;28;45507;-65
2022/10/01 02:36:18;;;;;;;;;0.00;0.00;;;;;14.65;78.73;100232.34;5043738;28;45272;-65
2022/10/01 02:38:45;;;;;;;;;0.33;0.33;;;;;14.67;78.76;100216.94;5037485;28;46033;-65
2022/10/01 02:41:16;;;;;;;;;0.00;0.00;;;;;14.70;78.90;100226.44;5038860;28;46406;-65
2022/10/01 02:44:01;;;;;;;;;0.67;0.67;;;;;14.73;78.73;100229.59;5037132;28;45327;-65
2022/10/01 02:46:35;;;;;;;;;0.00;0.00;;;;;14.77;78.34;100230.88;5037900;28;45387;-65
2022/10/01 02:49:03;;;;;;;;;0.00;0.00;;;;;14.78;78.21;100213.81;5038443;28;48580;-65
2022/10/01 02:51:52;;;;;;;;;0.00;0.00;;;;;14.85;78.11;100220.09;5037828;28;45349;-65
2022/10/01 02:54:26;;;;;;;;;0.00;0.00;;;;;14.42;78.30;100144.13;5032064;28;45522;-66
2022/10/01 02:59:35;;;;;;;;;1.00;1.00;;;;;14.75;78.08;100175.88;5037211;28;45254;-65
2022/10/01 03:02:01;;;;;;;;;0.00;0.00;;;;;14.89;78.36;100188.44;5036877;28;45227;-65
2022/10/01 03:04:26;;;;;;;;;0.00;0.00;;;;;14.27;78.73;100090.63;5053750;28;45182;-66
2022/10/01 03:06:52;;;;;;;;;0.00;0.00;;;;;14.79;79.15;100164.63;5065709;28;45248;-67
2022/10/01 03:09:17;;;;;;;;;1.00;1.00;;;;;14.87;78.93;100191.31;5065213;28;46668;-66
2022/10/01 03:11:42;;;;;;;;;1.00;1.00;;;;;14.89;79.18;100189.28;5070828;28;45332;-66
2022/10/01 03:14:09;;;;;;;;;0.67;0.67;;;;;14.81;79.23;100165.25;5069981;28;45220;-67
2022/10/01 03:16:34;;;;;;;;;1.00;0.00;;;;;14.81;79.07;100167.09;5065879;28;45288;-66
2022/10/01 03:19:00;;;;;;;;;0.67;0.00;;;;;14.81;79.26;100156.41;5067625;28;46433;-66
2022/10/01 03:21:25;;;;;;;;;0.00;0.00;;;;;14.43;79.21;100095.00;5072758;28;45660;-66
2022/10/01 03:23:51;;;;;;;;;1.00;1.00;;;;;14.82;79.17;100160.75;5057470;28;46427;-64
2022/10/01 03:26:16;;;;;;;;;0.67;0.67;;;;;14.83;79.05;100170.44;5063224;28;45652;-65
2022/10/01 03:28:41;;;;;;;;;0.00;0.00;;;;;15.00;78.78;100195.16;5072769;28;45530;-65
2022/10/01 03:31:08;;;;;;;;;0.00;0.00;;;;;15.01;79.09;100175.41;5056825;28;45372;-65
2022/10/01 03:33:34;;;;;;;;;0.00;0.00;;;;;14.99;79.32;100182.78;5063875;28;45412;-64
2022/10/01 03:36:01;;;;;;;;;0.00;0.00;;;;;15.00;79.35;100201.34;5068575;28;45163;-66
2022/10/01 03:38:26;;;;;;;;;0.00;0.00;;;;;14.99;79.41;100166.72;5071334;28;46602;-66
2022/10/01 03:40:51;;;;;;;;;1.00;0.00;;;;;15.03;79.16;100178.75;5057003;28;45215;-66
2022/10/01 03:43:16;;;;;;;;;0.00;0.00;;;;;14.98;79.74;100171.25;5063678;28;52571;-66
2022/10/01 03:45:42;;;;;;;;;0.00;0.00;;;;;15.06;79.33;100181.88;5067365;28;45477;-67
2022/10/01 03:48:07;;;;;;;;;0.00;0.00;;;;;15.09;79.44;100188.69;5071897;28;46792;-66
2022/10/01 03:50:32;;;;;;;;;0.00;0.00;;;;;15.03;79.25;100158.16;5062661;28;45305;-66
2022/10/01 03:52:58;;;;;;;;;1.00;0.00;;;;;15.13;79.47;100163.19;5069769;28;49831;-66
2022/10/01 03:55:24;;;;;;;;;0.00;0.00;;;;;15.17;79.78;100191.25;5064348;28;45596;-67
2022/10/01 03:57:49;;;;;;;;;0.50;0.00;;;;;15.24;79.74;100186.84;5056323;28;46269;-66
2022/10/01 04:00:17;;;;;;;;;0.33;0.33;;;;;14.67;79.83;100090.38;5054830;28;45649;-65
2022/10/01 04:02:42;;;;;;;;;0.33;0.00;;;;;15.24;79.91;100208.25;5055501;28;45369;-65
2022/10/01 04:05:08;;;;;;;;;0.00;0.00;;;;;15.21;80.34;100201.41;5039254;28;45478;-66
2022/10/01 04:07:33;;;;;;;;;0.00;0.00;;;;;15.15;80.53;100204.00;5037030;28;45502;-66
2022/10/01 04:09:58;;;;;;;;;0.00;0.00;;;;;15.09;80.68;100173.47;5037439;28;48278;-68
2022/10/01 04:12:24;;;;;;;;;1.00;0.00;;;;;15.24;80.90;100236.88;5040942;28;45199;-66
2022/10/01 04:14:50;;;;;;;;;0.00;0.00;;;;;14.85;80.56;100160.38;5040670;28;45458;-65
2022/10/01 04:17:15;;;;;;;;;0.00;0.00;;;;;15.10;80.32;100211.78;5038486;28;45991;-65
2022/10/01 04:19:40;;;;;;;;;0.00;0.00;;;;;15.40;80.17;100248.19;5035497;28;61789;-65
2022/10/01 04:22:06;;;;;;;;;0.00;0.00;;;;;15.40;80.33;100234.81;5026217;28;45289;-64
2022/10/01 04:24:31;;;;;;;;;0.00;0.00;;;;;15.34;80.53;100224.84;5038518;28;50864;-65
2022/10/01 04:26:56;;;;;;;;;0.00;0.00;;;;;15.30;80.83;100225.41;5035879;28;55194;-64
2022/10/01 04:29:21;;;;;;;;;0.00;0.00;;;;;15.20;80.98;100228.38;5037464;28;45201;-66
2022/10/01 04:31:47;;;;;;;;;0.00;0.00;;;;;15.45;81.39;100259.19;5036305;28;45238;-66
2022/10/01 04:34:12;;;;;;;;;0.00;0.00;;;;;15.33;81.37;100241.94;5036155;28;45404;-66
2022/10/01 04:36:37;;;;;;;;;0.00;0.00;;;;;15.36;81.04;100241.56;5036086;28;46452;-65
2022/10/01 04:39:03;;;;;;;;;0.00;0.00;;;;;15.27;81.09;100213.22;5047362;28;45352;-65
2022/10/01 04:41:29;;;;;;;;;0.00;0.00;;;;;15.45;81.14;100243.13;5036947;28;45477;-66
2022/10/01 04:43:56;;;;;;;;;0.00;0.00;;;;;15.58;81.21;100265.72;5036416;28;45435;-65
2022/10/01 04:46:21;;;;;;;;;0.00;0.00;;;;;15.55;81.20;100264.25;5037717;28;46357;-66
2022/10/01 04:48:48;;;;;;;;;0.00;0.00;;;;;15.66;81.02;100287.09;5035948;28;48958;-65
2022/10/01 04:51:14;;;;;;;;;0.00;0.00;;;;;15.67;80.90;100278.03;5035924;28;45552;-66
2022/10/01 04:53:39;;;;;;;;;0.00;0.00;;;;;15.70;80.90;100286.53;5037263;28;45590;-67
2022/10/01 04:56:05;;;;;;;;;0.00;0.00;;;;;15.64;80.82;100278.41;5042565;28;47458;-65
2022/10/01 04:58:30;;;;;;;;;0.00;0.00;;;;;15.74;80.74;100295.00;5049019;28;45483;-65
2022/10/01 05:00:55;;;;;;;;;0.00;0.00;;;;;15.79;80.43;100287.22;5035823;28;45423;-65
2022/10/01 05:03:21;;;;;;;;;0.00;0.00;;;;;15.76;80.12;100276.91;5035717;28;45605;-65
2022/10/01 05:05:46;;;;;;;;;0.00;0.00;;;;;15.84;80.19;100298.25;5035418;28;45930;-65
2022/10/01 05:08:12;;;;;;;;;0.00;0.00;;;;;15.61;79.83;100258.16;5042402;28;45416;-66
2022/10/01 05:10:37;;;;;;;;;0.00;0.00;;;;;15.78;79.73;100290.94;5041536;28;45295;-65
2022/10/01 05:13:03;;;;;;;;;0.00;0.00;;;;;15.53;79.75;100251.03;5035891;28;45413;-64
2022/10/01 05:15:29;;;;;;;;;0.00;0.00;;;;;15.90;79.95;100300.16;5035307;28;46145;-65
2022/10/01 05:17:55;;;;;;;;;0.00;0.00;;;;;15.90;80.13;100308.19;5038876;28;45454;-65
2022/10/01 05:20:24;;;;;;;;;0.00;0.00;;;;;15.89;79.98;100311.91;5035594;28;45348;-66
2022/10/01 05:22:50;;;;;;;;;0.00;0.00;;;;;15.92;79.97;100311.50;5035790;28;45441;-66
2022/10/01 05:25:17;;;;;;;;;0.00;0.00;;;;;15.93;79.72;100320.38;5047327;28;46862;-65
2022/10/01 05:27:43;;;;;;;;;0.00;0.00;;;;;15.85;79.63;100301.75;5037693;28;45283;-66
2022/10/01 05:30:10;;;;;;;;;0.00;0.00;;;;;15.94;79.79;100319.38;5040803;28;45236;-65
2022/10/01 05:32:36;;;;;;;;;0.00;0.00;;;;;15.56;79.72;100260.56;5039303;28;45336;-66
2022/10/01 05:35:03;;;;;;;;;0.00;0.00;;;;;16.00;79.72;100321.28;5044961;28;46390;-65
2022/10/01 05:37:28;;;;;;;;;0.00;0.00;;;;;16.00;79.69;100330.16;5038240;28;45317;-66
2022/10/01 05:39:53;;;;;;;;;0.00;0.00;;;;;15.83;79.49;100315.34;5038881;28;45341;-66
2022/10/01 05:42:19;;;;;;;;;0.00;0.00;;;;;16.03;79.32;100339.69;5039083;28;45520;-65
2022/10/01 05:44:45;;;;;;;;;0.00;0.00;;;;;16.07;79.52;100340.97;5039291;28;48873;-65
2022/10/01 05:47:15;;;;;;;;;0.00;0.00;;;;;16.03;79.50;100353.94;5028818;28;45214;-66
2022/10/01 05:49:42;;;;;;;;;1.00;0.00;;;;;16.09;79.18;100361.22;5038856;28;45398;-65
2022/10/01 05:52:12;;;;;;;;;0.00;0.00;;;;;16.10;79.03;100372.78;5037272;28;45375;-66
2022/10/01 05:54:37;;;;;;;;;0.00;0.00;;;;;15.93;79.35;100342.66;5037364;28;45827;-67
2022/10/01 05:57:04;;;;;;;;;0.00;0.00;;;;;16.13;78.79;100370.53;5042326;28;45587;-65
2022/10/01 05:59:29;;;;;;;;;0.00;0.00;;;;;16.06;78.84;100364.28;5038690;28;45622;-67
2022/10/01 06:01:55;;;;;;;;;0.00;0.00;;;;;16.19;78.49;100378.84;5038476;28;45431;-65
2022/10/01 06:04:20;;;;;;;;;1.00;0.00;;;;;16.15;78.48;100373.03;5037227;28;48019;-67
2022/10/01 06:06:45;;;;;;;;;0.00;0.00;;;;;16.06;78.75;100364.28;5037126;28;45224;-66
2022/10/01 06:09:11;;;;;;;;;1.00;1.00;;;;;16.24;77.91;100393.38;5039713;28;45351;-66
2022/10/01 06:11:37;;;;;;;;;0.00;0.00;;;;;16.24;78.06;100392.53;5038559;28;45185;-66
2022/10/01 06:14:03;;;;;;;;;0.00;0.00;;;;;16.19;78.03;100385.03;5038273;28;46002;-66
2022/10/01 06:16:28;;;;;;;;;0.00;0.00;;;;;16.05;78.00;100384.06;5039789;28;45506;-65
2022/10/01 06:18:56;;;;;;;;;0.00;0.00;;;;;16.21;77.74;100404.44;5037729;28;45547;-66
2022/10/01 06:21:23;;;;;;;;;0.00;0.00;;;;;16.32;77.61;100417.38;5038158;28;45383;-66
2022/10/01 06:23:49;;;;;;;;;0.00;0.00;;;;;16.26;77.44;100409.28;5037634;28;45521;-67
2022/10/01 06:26:16;;;;;;;;;0.67;0.00;;;;;16.28;77.22;100404.56;5038093;28;45344;-66
2022/10/01 06:28:41;;;;;;;;;0.00;0.00;;;;;16.37;77.22;100423.00;5042971;28;45606;-65
2022/10/01 06:31:07;;;;;;;;;0.00;0.00;;;;;16.33;77.14;100418.22;5038250;28;45573;-66
2022/10/01 06:33:32;;;;;;;;;0.00;0.00;;;;;16.34;76.99;100419.88;5037273;28;45705;-66
2022/10/01 06:35:57;;;;;;;;;0.00;0.00;;;;;16.30;76.96;100413.22;5037042;28;45411;-65
2022/10/01 06:38:24;;;;;;;;;0.33;0.00;;;;;16.41;76.56;100426.13;5037542;28;45454;-66
2022/10/01 06:40:54;;;;;;;;;3.00;0.00;;;;;16.41;76.04;100418.09;5039348;28;45593;-66
2022/10/01 06:43:20;;;;;;;;;0.00;0.00;;;;;16.08;75.70;100377.50;5037977;28;45701;-65
2022/10/01 06:45:46;;;;;;;;;0.00;0.00;;;;;16.44;75.55;100431.16;5036423;28;45739;-66
2022/10/01 06:48:13;;;;;;;;;2.67;1.00;;;;;16.47;75.21;100436.13;5038831;28;45540;-66
2022/10/01 06:50:39;;;;;;;;;0.00;0.00;;;;;16.35;75.24;100411.63;5038341;28;45274;-65
2022/10/01 06:53:05;;;;;;;;;1.00;1.00;;;;;16.52;75.12;100430.19;5042980;28;45708;-66
2022/10/01 06:55:33;;;;;;;;;0.00;0.00;;;;;16.47;75.13;100430.75;5044569;28;45844;-66
2022/10/01 06:58:01;;;;;;;;;1.00;0.00;;;;;16.48;75.17;100431.59;5044574;28;45561;-66
2022/10/01 07:00:29;;;;;;;;;1.00;0.00;;;;;16.48;75.31;100434.28;5034567;28;45287;-67
2022/10/01 07:02:55;;;;;;;;;0.00;0.00;;;;;16.58;75.24;100449.03;5040450;28;46698;-67
2022/10/01 07:05:22;;;;;;;;;1.00;0.00;;;;;16.47;75.42;100432.63;5057094;28;45557;-68
2022/10/01 07:07:47;;;;;;;;;0.00;0.00;;;;;16.57;75.17;100442.00;5058126;28;45375;-67
2022/10/01 07:10:18;;;;;;;;;0.00;0.00;;;;;16.67;75.25;100463.22;5062140;28;45535;-66
2022/10/01 07:12:44;;;;;;;;;0.00;0.00;;;;;16.63;74.99;100446.63;5064023;27;46921;-67
2022/10/01 07:15:10;;;;;;;;;0.67;0.67;;;;;16.64;74.76;100448.31;5060977;28;45438;-66
2022/10/01 07:17:43;;;;;;;;;1.00;0.00;;;;;16.79;74.49;100474.25;5060740;28;45505;-65
2022/10/01 07:20:09;;;;;;;;;1.00;0.00;;;;;16.83;73.90;100481.78;5062186;27;45307;-67
2022/10/01 07:22:35;;;;;;;;;2.00;0.00;;;;;16.75;74.09;100464.94;5069852;27;46419;-66
2022/10/01 07:25:01;;;;;;;;;0.00;0.00;;;;;16.89;73.95;100480.16;5057667;28;45490;-67
2022/10/01 07:27:26;;;;;;;;;1.00;0.00;;;;;16.88;73.69;100478.50;5056918;28;45511;-67
2022/10/01 07:29:52;;;;;;;;;0.00;0.00;;;;;16.25;73.60;100380.78;5054850;28;51708;-73
2022/10/01 07:32:17;;;;;;;;;0.33;0.33;;;;;16.96;73.57;100499.84;5059444;28;46915;-67
2022/10/01 07:34:43;;;;;;;;;1.00;1.00;;;;;17.01;73.57;100516.22;5059100;27;45327;-67
2022/10/01 07:37:09;;;;;;;;;0.67;0.33;;;;;16.98;73.56;100505.84;5061188;28;45432;-68
2022/10/01 07:39:35;;;;;;;;;1.00;1.00;;;;;16.97;73.38;100510.41;5057483;28;45322;-68
2022/10/01 07:42:01;;;;;;;;;1.00;0.67;;;;;17.03;73.24;100528.47;5056471;28;46643;-66
2022/10/01 07:44:28;;;;;;;;;0.33;0.33;;;;;17.07;72.95;100523.53;5072146;28;45374;-66
2022/10/01 07:46:54;;;;;;;;;1.00;0.00;;;;;16.97;72.78;100501.50;5056545;28;45541;-70
2022/10/01 07:49:19;;;;;;;;;0.50;0.50;;;;;17.12;72.40;100541.75;5055415;28;45381;-68
2022/10/01 07:51:47;;;;;;;;;2.00;0.50;;;;;17.10;71.86;100528.50;5056724;27;46529;-68
2022/10/01 07:54:12;;;;;;;;;2.00;1.00;;;;;17.15;71.67;100530.63;5056640;28;45473;-68
2022/10/01 07:56:38;;;;;;;;;1.67;1.67;;;;;17.16;71.41;100546.53;5059000;28;45755;-72
2022/10/01 07:59:03;;;;;;;;;4.00;3.00;;;;;17.00;70.77;100523.44;5057318;28;45573;-72
2022/10/01 08:01:30;;;;;;;;;3.00;2.00;;;;;17.14;70.18;100545.91;5056412;28;46247;-69
2022/10/01 08:03:55;;;;;;;;;0.67;0.67;;;;;17.14;69.94;100528.94;5073621;27;45513;-69
2022/10/01 08:06:21;;;;;;;;;3.67;2.67;;;;;17.13;69.65;100520.06;5061536;28;45433;-70
2022/10/01 08:08:46;;;;;;;;;1.00;1.00;;;;;17.41;69.26;100552.34;5057010;28;45324;-68
2022/10/01 08:11:16;;;;;;;;;2.00;1.00;;;;;17.50;68.44;100545.84;5056070;28;45567;-70
2022/10/01 08:13:44;;;;;;;;;4.00;1.00;;;;;17.23;67.86;100484.84;5048895;28;45507;-70
2022/10/01 08:16:10;;;;;;;;;14.00;11.33;;;;;17.76;67.72;100547.91;5056431;28;45426;-68
2022/10/01 08:18:37;;;;;;;;;3.00;2.00;;;;;17.96;67.06;100560.69;5071691;28;45470;-68
2022/10/01 08:21:02;;;;;;;;;5.00;2.33;;;;;18.00;66.52;100551.19;5060827;28;46665;-69
2022/10/01 08:23:31;;;;;;;;;3.00;3.00;;;;;17.95;65.59;100538.34;5065294;27;45697;-70
2022/10/01 08:26:01;;;;;;;;;3.00;3.00;;;;;18.26;65.25;100572.91;5053961;28;45428;-71
2022/10/01 08:28:27;;;;;;;;;3.00;1.33;;;;;18.30;64.20;100576.00;5062889;28;45419;-70
2022/10/01 08:30:52;;;;;;;;;3.00;1.00;;;;;17.33;63.97;100412.75;5055672;28;45554;-69
2022/10/01 08:33:18;;;;;;;;;3.00;2.00;;;;;18.27;63.60;100568.34;5056422;28;45327;-67
2022/10/01 08:35:43;;;;;;;;;3.00;1.67;;;;;18.15;63.05;100571.56;5055017;28;45720;-69
2022/10/01 08:38:10;;;;;;;;;2.00;2.00;;;;;18.17;63.78;100579.44;5049195;28;45498;-68
2022/10/01 08:40:44;;;;;;;;;2.00;2.00;;;;;18.00;63.53;100570.00;5074350;27;47648;-68
2022/10/01 08:43:25;;;;;;;;;2.33;1.00;;;;;18.02;63.46;100581.41;5049089;28;45452;-68
2022/10/01 08:45:53;;;;;;;;;1.67;1.67;;;;;18.04;63.87;100607.09;5056089;28;45456;-69
2022/10/01 08:48:43;;;;;;;;;1.00;1.00;;;;;18.08;63.81;100612.94;5056253;28;45435;-68
2022/10/01 08:51:17;;;;;;;;;2.67;1.33;;;;;18.12;63.90;100606.13;5054375;28;45616;-66
2022/10/01 08:53:49;;;;;;;;;1.00;1.00;;;;;18.02;63.92;100589.47;5057377;28;45564;-68
2022/10/01 08:56:23;;;;;;;;;1.00;1.00;;;;;18.30;63.77;100617.22;5054947;28;45290;-67
2022/10/01 08:58:57;;;;;;;;;2.00;1.00;;;;;18.40;64.01;100616.84;5053621;28;45395;-70
2022/10/01 09:01:23;;;;;;;;;3.33;1.00;;;;;18.48;63.55;100628.31;5057473;28;46624;-69
2022/10/01 09:03:49;;;;;;;;;4.33;2.67;;;;;18.57;63.41;100620.88;5074474;28;45461;-67
2022/10/01 09:06:19;;;;;;;;;3.00;2.00;;;;;18.66;63.38;100632.38;5075289;28;45214;-69
2022/10/01 09:09:29;;;;;;;;;1.50;1.25;;;;;18.72;63.46;100631.56;5067371;27;45557;-68
2022/10/01 09:12:13;;;;;;;;;5.00;3.00;;;;;18.79;63.14;100633.25;5048261;28;47360;-67
2022/10/01 09:15:05;;;;;;;;;3.67;2.33;;;;;18.80;63.10;100637.59;5060746;28;45572;-68
2022/10/01 09:17:58;;;;;;;;;1.33;1.33;;;;;18.74;62.88;100627.63;5058453;28;45488;-72
2022/10/01 09:20:46;;;;;;;;;3.33;2.00;;;;;18.88;63.18;100647.38;5060138;28;45896;-68
2022/10/01 09:23:29;;;;;;;;;2.00;1.00;;;;;18.94;63.49;100651.13;5058162;28;47608;-71
2022/10/01 09:25:57;;;;;;;;;5.33;1.67;;;;;18.46;63.12;100571.13;5058223;28;45395;-69
2022/10/01 09:28:27;;;;;;;;;2.50;1.00;;;;;18.76;63.08;100622.03;5058543;28;45328;-71
2022/10/01 09:30:59;;;;;;;;;5.33;4.00;;;;;18.96;63.30;100663.38;5059305;28;45254;-67
2022/10/01 09:33:54;;;;;;;;;4.25;3.00;;;;;18.98;63.06;100660.47;5061190;28;46608;-71
2022/10/01 09:36:57;;;;;;;;;1.67;1.33;;;;;18.98;62.65;100668.56;5054367;28;45281;-71
2022/10/01 09:39:33;;;;;;;;;2.00;2.00;;;;;18.99;62.36;100665.66;5070183;28;45462;-70
2022/10/01 09:41:58;;;;;;;;;2.00;2.00;;;;;18.97;62.66;100662.34;5059352;28;45544;-70
2022/10/01 09:44:29;;;;;;;;;4.33;3.00;;;;;18.90;62.39;100650.72;5059185;28;46192;-69
2022/10/01 09:46:55;;;;;;;;;3.67;3.00;;;;;18.97;62.12;100673.09;5058629;28;45470;-69
2022/10/01 09:49:42;;;;;;;;;5.00;4.00;;;;;19.07;62.01;100687.06;5058929;28;45200;-68
2022/10/01 09:52:36;;;;;;;;;4.00;2.33;;;;;19.10;61.97;100675.88;5054590;28;45343;-70
2022/10/01 09:55:16;;;;;;;;;0.50;0.50;;;;;19.18;61.19;100684.81;5052206;28;47399;-70
2022/10/01 09:57:49;;;;;;;;;3.33;2.00;;;;;19.22;61.38;100680.66;5057960;28;46954;-71
2022/10/01 10:00:20;;;;;;;;;2.33;2.33;;;;;19.28;61.24;100694.19;5059374;28;45535;-71
2022/10/01 10:02:47;;;;;;;;;3.33;2.00;;;;;19.33;61.26;100697.09;5058566;28;45515;-68
2022/10/01 10:05:16;;;;;;;;;3.25;1.00;;;;;19.39;60.55;100703.53;5056774;28;47085;-69
2022/10/01 10:08:17;;;;;;;;;7.33;6.33;;;;;19.49;60.18;100708.56;5065936;28;45340;-73
2022/10/01 10:10:57;;;;;;;;;2.67;2.67;;;;;19.52;60.22;100705.44;5044972;28;45530;-70
2022/10/01 10:13:33;;;;;;;;;4.75;2.50;;;;;19.48;59.92;100688.84;5058040;28;45423;-69
2022/10/01 10:16:06;;;;;;;;;1.00;1.00;;;;;19.55;59.59;100689.72;5053969;28;45760;-69
2022/10/01 10:18:37;;;;;;;;;4.50;1.75;;;;;19.81;58.58;100724.00;5061420;28;45491;-69
2022/10/01 10:21:09;;;;;;;;;4.25;3.00;;;;;19.91;58.37;100723.63;5058804;28;45633;-71
2022/10/01 10:23:46;;;;;;;;;2.25;1.50;;;;;19.98;58.06;100719.06;5059862;28;45535;-70
2022/10/01 10:26:19;;;;;;;;;3.00;2.00;;;;;19.99;57.53;100696.44;5074831;27;47263;-71
2022/10/01 10:28:47;;;;;;;;;1.25;1.00;;;;;20.27;57.08;100724.06;5058532;28;45274;-67
2022/10/01 10:31:23;;;;;;;;;4.67;4.67;;;;;19.88;56.52;100637.69;5057339;28;45474;-69
2022/10/01 10:34:19;;;;;;;;;4.25;3.25;;;;;20.54;56.32;100729.47;5056637;28;45395;-71
2022/10/01 10:36:45;;;;;;;;;2.50;2.50;;;;;20.66;55.49;100730.50;5057805;28;46812;-66
2022/10/01 10:39:23;;;;;;;;;3.67;2.00;;;;;20.61;55.37;100709.50;5051933;28;45407;-68
2022/10/01 10:41:50;;;;;;;;;6.00;3.33;;;;;20.85;54.63;100742.31;5057528;28;45443;-70
2022/10/01 10:44:20;;;;;;;;;1.00;1.00;;;;;20.75;54.26;100693.28;5061280;28;46572;-68
2022/10/01 10:46:47;;;;;;;;;6.33;3.33;;;;;21.00;54.09;100729.38;5056808;28;46548;-68
2022/10/01 10:49:30;;;;;;;;;5.00;2.33;;;;;21.10;53.99;100737.03;5055949;28;45474;-68
2022/10/01 10:51:59;;;;;;;;;8.00;5.00;;;;;21.10;53.10;100726.22;5055891;28;45499;-73
2022/10/01 10:54:40;;;;;;;;;1.67;0.67;;;;;21.19;52.34;100733.06;5056649;28;45434;-69
2022/10/01 10:57:22;;;;;;;;;5.00;2.67;;;;;21.29;52.13;100733.47;5056436;28;47137;-68
2022/10/01 11:00:16;;;;;;;;;2.33;1.00;;;;;21.22;51.57;100732.63;5056165;28;45561;-70
2022/10/01 11:03:00;;;;;;;;;5.00;2.00;;;;;21.25;51.80;100752.00;5050340;28;45563;-69
2022/10/01 11:05:30;;;;;;;;;3.67;2.67;;;;;21.22;51.77;100738.03;5038177;28;45570;-68
2022/10/01 11:08:01;;;;;;;;;5.00;4.00;;;;;21.31;52.35;100753.00;5037412;28;46479;-68
2022/10/01 11:10:31;;;;;;;;;2.00;2.00;;;;;21.30;52.05;100745.94;5037128;28;45491;-68
2022/10/01 11:13:14;;;;;;;;;4.00;2.00;;;;;21.38;51.74;100759.22;5037667;28;45331;-68
2022/10/01 11:15:47;;;;;;;;;4.67;4.67;;;;;21.31;51.78;100758.44;5012583;28;45479;-68
2022/10/01 11:18:37;;;;;;;;;3.00;2.00;;;;;21.29;51.54;100763.22;5037297;28;46730;-67
2022/10/01 11:21:25;;;;;;;;;6.00;6.00;;;;;21.23;51.89;100755.94;5048292;28;45285;-69
2022/10/01 11:24:01;;;;;;;;;2.33;1.33;;;;;21.33;51.94;100761.75;5036799;28;45396;-68
2022/10/01 11:26:44;;;;;;;;;3.00;2.00;;;;;21.24;51.84;100752.22;5037590;28;45462;-67
2022/10/01 11:29:48;;;;;;;;;4.00;4.00;;;;;21.29;51.91;100767.78;5037268;28;47506;-69
2022/10/01 11:32:36;;;;;;;;;5.50;3.75;;;;;21.11;51.40;100738.72;5037162;28;45325;-69
2022/10/01 11:35:02;;;;;;;;;4.67;3.33;;;;;21.32;51.25;100768.19;5037529;28;45361;-69
2022/10/01 11:37:46;;;;;;;;;2.00;2.00;;;;;21.35;51.32;100765.06;5050195;28;45509;-69
2022/10/01 11:40:23;;;;;;;;;4.67;2.00;;;;;21.33;50.89;100760.91;5037175;28;45763;-68
2022/10/01 11:42:54;;;;;;;;;2.33;1.33;;;;;21.41;50.21;100763.38;5039751;28;45607;-69